createdAt,value
2019-02-08T05:48:47.841Z,50.70
2019-02-08T05:51:49.676Z,49.30
2019-02-08T05:54:42.344Z,48.40
2019-02-08T05:57:36.933Z,47.30
2019-02-08T06:00:38.985Z,46.80
2019-02-08T06:03:33.946Z,46.00
2019-02-08T06:06:28.377Z,45.50
2019-02-08T06:09:22.074Z,45.30
2019-02-08T06:12:18.472Z,45.20
2019-02-08T06:15:44.810Z,44.80
2019-02-08T06:18:47.355Z,44.80
2019-02-08T06:21:40.520Z,44.60
2019-02-08T06:25:03.435Z,44.50
2019-02-08T06:27:56.680Z,44.30
2019-02-08T06:30:56.935Z,44.20
2019-02-08T06:33:55.985Z,44.20
2019-02-08T06:36:51.442Z,44.10
2019-02-08T06:39:47.167Z,44.20
2019-02-08T06:42:44.564Z,44.40
2019-02-08T06:45:39.742Z,44.30
2019-02-08T06:48:31.733Z,44.30
2019-02-08T06:51:25.345Z,44.50
2019-02-08T06:54:23.449Z,44.40
2019-02-08T06:57:38.384Z,44.30
2019-02-08T07:00:44.488Z,44.40
2019-02-08T07:04:00.421Z,44.60
2019-02-08T07:07:10.093Z,44.70
2019-02-08T07:10:23.292Z,45.00
2019-02-08T07:13:35.774Z,45.70
2019-02-08T07:17:09.001Z,47.00
2019-02-08T07:20:40.553Z,47.30
2019-02-08T07:23:58.828Z,48.30
2019-02-08T07:27:15.844Z,49.70
2019-02-08T07:30:22.937Z,51.50
2019-02-08T07:33:35.265Z,52.20
2019-02-08T07:36:49.989Z,53.00
2019-02-08T07:40:03.369Z,53.20
2019-02-08T07:43:10.751Z,53.50
2019-02-08T07:46:16.192Z,54.00
2019-02-08T07:49:16.225Z,54.10
2019-02-08T07:52:34.222Z,54.30
2019-02-08T07:59:19.647Z,55.00
2019-02-08T08:02:36.928Z,55.20
2019-02-08T08:05:51.965Z,55.20
2019-02-08T08:09:11.051Z,55.60
2019-02-08T08:12:08.747Z,56.20
2019-02-08T08:15:29.586Z,56.20
2019-02-08T08:18:46.515Z,56.20
2019-02-08T08:22:15.724Z,56.10
2019-02-08T08:25:21.804Z,56.90
2019-02-08T08:28:46.707Z,56.50
2019-02-08T08:32:15.157Z,56.70
2019-02-08T08:35:30.093Z,56.60
2019-02-08T08:38:46.311Z,57.30
2019-02-08T08:42:06.835Z,58.00
2019-02-08T08:45:45.834Z,57.50
2019-02-08T08:48:55.376Z,57.00
2019-02-08T08:52:10.789Z,57.10
2019-02-08T08:55:33.114Z,57.80
2019-02-08T08:58:47.123Z,58.80
2019-02-08T09:02:37.351Z,58.60
2019-02-08T09:05:25.745Z,57.80
2019-02-08T09:08:25.809Z,58.10
2019-02-08T09:11:39.316Z,58.00
2019-02-08T09:15:18.449Z,57.50
2019-02-08T09:18:37.996Z,57.50
2019-02-08T09:22:06.447Z,58.60
2019-02-08T09:28:56.203Z,59.20
2019-02-08T09:34:07.899Z,58.90
2019-02-08T09:35:36.161Z,60.50
2019-02-08T09:38:42.515Z,58.30
2019-02-08T09:41:56.703Z,59.30
2019-02-08T09:45:06.378Z,59.80
2019-02-08T09:48:21.115Z,59.00
2019-02-08T09:51:30.102Z,59.00
2019-02-08T09:54:45.823Z,60.00
2019-02-08T09:57:53.908Z,60.40
2019-02-08T10:01:21.926Z,59.60
2019-02-08T10:04:32.493Z,59.10
2019-02-08T10:07:49.140Z,59.10
2019-02-08T10:11:12.546Z,59.60
2019-02-08T10:14:46.891Z,59.70
2019-02-08T10:18:05.416Z,59.60
2019-02-08T10:21:07.570Z,59.70
2019-02-08T10:24:12.149Z,60.00
2019-02-08T10:27:21.622Z,59.80
2019-02-08T10:30:33.263Z,59.90
2019-02-08T10:33:43.248Z,60.00
2019-02-08T10:36:54.400Z,60.00
2019-02-08T10:40:12.251Z,60.60
2019-02-08T10:43:29.129Z,59.80
2019-02-08T10:46:31.632Z,59.80
2019-02-08T10:49:50.028Z,59.50
2019-02-08T10:53:00.762Z,59.70
2019-02-08T10:56:15.119Z,59.00
2019-02-08T10:59:25.061Z,59.10
2019-02-08T11:02:50.695Z,59.90
2019-02-08T11:06:07.584Z,59.50
2019-02-08T11:09:17.164Z,59.10
2019-02-08T11:12:37.392Z,58.50
2019-02-08T11:16:11.552Z,59.40
2019-02-08T11:19:20.936Z,58.80
2019-02-08T11:22:13.354Z,59.60
2019-02-08T11:25:08.275Z,59.50
2019-02-08T11:28:01.980Z,58.90
2019-02-08T11:30:55.179Z,58.80
2019-02-08T11:33:49.102Z,60.00
2019-02-08T11:36:45.368Z,60.50
2019-02-08T11:39:38.055Z,59.70
2019-02-08T11:42:30.267Z,60.10
2019-02-08T11:45:22.981Z,59.80
2019-02-08T11:48:16.940Z,59.60
2019-02-08T11:51:10.826Z,58.80
2019-02-08T11:54:03.714Z,58.90
2019-02-08T11:56:55.976Z,58.70
2019-02-08T11:59:50.456Z,59.00
2019-02-08T12:02:43.312Z,59.60
2019-02-08T12:05:38.405Z,59.60
2019-02-08T12:08:31.728Z,60.60
2019-02-08T12:11:27.703Z,59.10
2019-02-08T12:14:21.332Z,60.00
2019-02-08T12:17:15.794Z,59.50
2019-02-08T12:20:13.116Z,59.00
2019-02-08T12:23:06.751Z,59.60
2019-02-08T12:26:00.304Z,59.70
2019-02-08T12:28:54.955Z,59.00
2019-02-08T12:31:51.341Z,58.70
2019-02-08T12:34:48.896Z,59.20
